createdAt,value
2019-03-03T00:00:41.798Z,2.20
2019-03-03T00:03:09.163Z,1.60
2019-03-03T00:05:36.533Z,1.70
2019-03-03T00:08:04.018Z,1.40
2019-03-03T00:10:31.495Z,1.60
2019-03-03T00:12:59.004Z,1.70
2019-03-03T00:15:26.478Z,1.50
2019-03-03T00:17:53.838Z,2.00
2019-03-03T00:20:21.420Z,1.20
2019-03-03T00:22:48.857Z,1.70
2019-03-03T00:25:16.345Z,1.63
2019-03-03T00:27:43.698Z,1.97
2019-03-03T00:30:12.573Z,1.73
2019-03-03T00:32:39.900Z,2.03
2019-03-03T00:35:07.323Z,1.87
2019-03-03T00:38:00.136Z,2.20
2019-03-03T00:40:34.259Z,2.10
2019-03-03T00:43:14.282Z,2.50
2019-03-03T00:46:07.318Z,1.93
2019-03-03T00:48:55.846Z,1.90
2019-03-03T00:51:42.800Z,2.43
2019-03-03T00:54:41.949Z,2.03
2019-03-03T00:57:26.409Z,1.40
2019-03-03T01:00:14.961Z,1.80
2019-03-03T01:02:57.539Z,2.00
2019-03-03T01:05:38.691Z,2.37
2019-03-03T01:08:24.722Z,1.47
2019-03-03T01:11:17.657Z,1.73
2019-03-03T01:14:03.329Z,1.77
2019-03-03T01:16:55.095Z,1.97
2019-03-03T01:19:48.151Z,1.23
2019-03-03T01:22:25.835Z,1.80
2019-03-03T01:24:56.859Z,1.90
2019-03-03T01:27:25.147Z,1.63
2019-03-03T01:29:52.695Z,2.20
2019-03-03T01:32:20.177Z,2.00
2019-03-03T01:34:47.633Z,1.50
2019-03-03T01:37:14.995Z,2.20
2019-03-03T01:39:42.437Z,2.10
2019-03-03T01:42:09.811Z,1.73
2019-03-03T01:44:37.307Z,1.67
2019-03-03T01:47:04.665Z,2.70
2019-03-03T01:49:32.024Z,1.80
2019-03-03T01:51:59.465Z,1.30
2019-03-03T01:54:26.917Z,1.60
2019-03-03T01:56:54.349Z,1.87
2019-03-03T01:59:21.851Z,1.97
2019-03-03T02:01:49.223Z,1.50
2019-03-03T02:04:16.647Z,1.60
2019-03-03T02:06:44.039Z,2.03
2019-03-03T02:09:22.865Z,1.77
2019-03-03T02:11:50.223Z,1.90
2019-03-03T02:14:17.708Z,1.57
2019-03-03T02:16:45.116Z,1.60
2019-03-03T02:19:12.578Z,1.73
2019-03-03T02:21:40.079Z,1.90
2019-03-03T02:24:07.545Z,1.13
2019-03-03T02:26:34.892Z,1.73
2019-03-03T02:29:03.060Z,1.43
2019-03-03T02:31:30.505Z,1.87
2019-03-03T02:33:57.940Z,2.10
2019-03-03T02:36:25.424Z,1.90
2019-03-03T02:38:52.911Z,1.90
2019-03-03T02:41:20.395Z,1.47
2019-03-03T02:43:47.736Z,1.00
2019-03-03T02:46:15.217Z,2.70
2019-03-03T02:48:42.655Z,2.23
2019-03-03T02:51:10.019Z,1.53
2019-03-03T02:53:37.485Z,1.73
2019-03-03T02:56:04.914Z,2.03
2019-03-03T02:58:32.287Z,1.97
2019-03-03T03:01:05.372Z,2.30
2019-03-03T03:03:32.860Z,2.43
2019-03-03T03:06:09.328Z,2.30
2019-03-03T03:08:55.061Z,2.40
2019-03-03T03:11:37.151Z,1.87
2019-03-03T03:14:10.660Z,1.97
2019-03-03T03:16:56.233Z,1.77
2019-03-03T03:19:43.195Z,2.73
2019-03-03T03:22:27.100Z,1.80
2019-03-03T03:25:29.120Z,2.40
2019-03-03T03:28:15.143Z,2.03
2019-03-03T03:31:03.361Z,2.07
2019-03-03T03:33:53.527Z,1.73
2019-03-03T03:36:40.567Z,2.00
2019-03-03T03:39:15.696Z,2.37
2019-03-03T03:41:54.095Z,2.47
2019-03-03T03:44:36.741Z,1.33
2019-03-03T03:47:21.777Z,1.80
2019-03-03T03:49:58.073Z,3.30
2019-03-03T03:52:50.484Z,1.70
2019-03-03T03:55:49.722Z,1.87
2019-03-03T03:58:23.286Z,1.77
2019-03-03T04:01:08.895Z,2.67
2019-03-03T04:03:47.406Z,2.40
2019-03-03T04:06:24.387Z,2.37
2019-03-03T04:09:01.670Z,2.10
2019-03-03T04:11:47.641Z,2.17
2019-03-03T04:14:34.590Z,1.80
2019-03-03T04:17:19.900Z,3.43
2019-03-03T04:20:26.408Z,1.60
2019-03-03T04:23:22.109Z,2.30
2019-03-03T04:26:24.153Z,2.30
2019-03-03T04:28:58.221Z,2.67
2019-03-03T04:31:40.439Z,1.90
2019-03-03T04:34:30.197Z,2.23
2019-03-03T04:37:15.647Z,2.33
2019-03-03T04:39:52.554Z,1.57
2019-03-03T04:42:29.732Z,2.10
2019-03-03T04:45:28.636Z,2.27
2019-03-03T04:48:18.667Z,2.43
2019-03-03T04:51:08.229Z,2.10
2019-03-03T04:53:47.024Z,2.93
2019-03-03T04:56:24.611Z,2.43
2019-03-03T04:59:10.207Z,2.10
2019-03-03T05:01:57.168Z,2.07
2019-03-03T05:04:55.980Z,3.07
2019-03-03T05:07:42.888Z,2.90
2019-03-03T05:10:32.810Z,2.57
2019-03-03T05:13:18.473Z,2.40
2019-03-03T05:16:05.441Z,1.80
2019-03-03T05:19:01.730Z,2.20
2019-03-03T05:21:29.151Z,2.33
2019-03-03T05:23:56.607Z,2.57
2019-03-03T05:26:24.073Z,2.13
2019-03-03T05:28:51.517Z,2.80
2019-03-03T05:31:18.961Z,2.33
2019-03-03T05:33:46.487Z,1.93
2019-03-03T05:36:13.939Z,3.20
2019-03-03T05:38:41.362Z,2.33
2019-03-03T05:41:08.843Z,3.20
2019-03-03T05:43:36.308Z,2.73
2019-03-03T05:46:03.812Z,2.57
2019-03-03T05:48:31.295Z,2.00
2019-03-03T05:50:58.730Z,2.77
2019-03-03T05:53:26.189Z,2.30
2019-03-03T05:55:53.693Z,1.70
2019-03-03T05:58:21.172Z,2.70
2019-03-03T06:00:48.586Z,2.13
2019-03-03T06:03:16.110Z,3.27
2019-03-03T06:05:43.531Z,2.80
2019-03-03T06:08:10.892Z,1.63
2019-03-03T06:10:38.383Z,2.13
2019-03-03T06:13:05.835Z,2.83
2019-03-03T06:15:33.294Z,2.17
2019-03-03T06:18:00.667Z,1.77
2019-03-03T06:20:28.004Z,2.67
2019-03-03T06:22:55.451Z,2.90
2019-03-03T06:25:22.926Z,2.03
2019-03-03T06:27:50.373Z,1.40
2019-03-03T06:30:19.856Z,2.07
2019-03-03T06:32:47.234Z,2.50
2019-03-03T06:35:14.693Z,2.43
2019-03-03T06:37:42.050Z,2.30
2019-03-03T06:40:15.371Z,2.23
2019-03-03T06:42:42.735Z,3.00
2019-03-03T06:45:10.515Z,2.40
2019-03-03T06:47:38.014Z,1.80
2019-03-03T06:50:07.232Z,2.57
2019-03-03T06:52:34.612Z,2.80
2019-03-03T06:55:01.989Z,1.87
2019-03-03T06:57:29.420Z,2.63
2019-03-03T06:59:56.866Z,3.33
2019-03-03T07:02:24.348Z,2.40
2019-03-03T07:04:51.762Z,2.53
2019-03-03T07:07:19.128Z,2.80
2019-03-03T07:09:46.594Z,2.40
2019-03-03T07:12:13.981Z,2.30
2019-03-03T07:14:41.300Z,2.90
2019-03-03T07:17:08.726Z,3.23
2019-03-03T07:19:36.139Z,2.77
2019-03-03T07:22:03.580Z,2.20
2019-03-03T07:24:30.990Z,1.80
2019-03-03T07:26:58.344Z,2.80
2019-03-03T07:29:25.698Z,2.10
2019-03-03T07:31:53.149Z,2.70
2019-03-03T07:34:20.614Z,3.07
2019-03-03T07:36:48.109Z,2.00
2019-03-03T07:39:18.849Z,2.60
2019-03-03T07:41:46.459Z,2.53
2019-03-03T07:44:13.933Z,2.77
2019-03-03T07:46:41.465Z,2.17
2019-03-03T07:49:08.831Z,2.20
2019-03-03T07:51:36.385Z,1.77
2019-03-03T07:54:03.969Z,2.30
2019-03-03T07:56:31.334Z,2.37
2019-03-03T07:58:58.869Z,2.70
2019-03-03T08:01:26.349Z,2.53
2019-03-03T08:03:53.716Z,2.50
2019-03-03T08:06:21.153Z,2.63
2019-03-03T08:08:48.606Z,2.20
2019-03-03T08:11:16.008Z,2.60
2019-03-03T08:13:43.737Z,2.57
2019-03-03T08:16:11.262Z,2.40
2019-03-03T08:18:38.717Z,2.70
2019-03-03T08:21:06.148Z,2.10
2019-03-03T08:23:33.707Z,2.20
2019-03-03T08:26:01.061Z,2.57
2019-03-03T08:28:28.560Z,2.17
2019-03-03T08:30:56.025Z,2.30
2019-03-03T08:33:23.370Z,2.30
2019-03-03T08:35:50.851Z,2.60
2019-03-03T08:38:18.440Z,2.87
2019-03-03T08:40:45.934Z,2.73
2019-03-03T08:43:31.516Z,2.40
2019-03-03T08:46:18.182Z,2.40
2019-03-03T08:48:53.417Z,2.27
2019-03-03T08:51:44.465Z,2.27
2019-03-03T08:54:42.538Z,2.77
2019-03-03T08:57:35.071Z,2.33
2019-03-03T09:00:21.820Z,2.57
2019-03-03T09:03:11.415Z,2.43
2019-03-03T09:05:57.153Z,2.53
2019-03-03T09:08:47.138Z,2.80
2019-03-03T09:11:51.105Z,2.80
2019-03-03T09:14:37.097Z,2.80
2019-03-03T09:17:49.483Z,3.10
2019-03-03T09:20:25.793Z,2.70
2019-03-03T09:23:02.656Z,2.23
2019-03-03T09:25:48.352Z,2.40
2019-03-03T09:28:33.994Z,1.87
2019-03-03T09:31:23.868Z,2.73
2019-03-03T09:34:18.306Z,2.90
2019-03-03T09:37:17.270Z,2.17
2019-03-03T09:40:22.194Z,1.60
2019-03-03T09:43:24.306Z,2.17
2019-03-03T09:46:14.332Z,2.23
2019-03-03T09:49:01.296Z,1.53
2019-03-03T09:51:47.098Z,2.30
2019-03-03T09:54:22.948Z,2.27
2019-03-03T09:57:12.934Z,2.50
2019-03-03T10:00:02.968Z,2.60
2019-03-03T10:02:49.803Z,2.67
2019-03-03T10:05:49.032Z,2.60
2019-03-03T10:08:45.734Z,2.70
2019-03-03T10:11:19.520Z,1.53
2019-03-03T10:14:05.168Z,2.73
2019-03-03T10:17:01.420Z,3.57
2019-03-03T10:19:46.978Z,2.10
2019-03-03T10:22:33.930Z,2.93
2019-03-03T10:25:17.211Z,2.03
2019-03-03T10:28:04.166Z,2.07
2019-03-03T10:33:38.511Z,2.97
2019-03-03T10:36:31.633Z,2.13
2019-03-03T10:39:08.408Z,2.87
2019-03-03T10:41:58.367Z,2.20
2019-03-03T10:45:03.427Z,2.07
2019-03-03T10:47:53.496Z,2.83
2019-03-03T10:50:40.537Z,3.10
2019-03-03T10:54:01.704Z,2.33
2019-03-03T10:56:21.126Z,2.43
2019-03-03T10:59:07.128Z,1.70
2019-03-03T11:02:01.633Z,2.03
2019-03-03T11:04:46.836Z,2.10
2019-03-03T11:07:19.785Z,2.67
2019-03-03T11:10:15.466Z,1.93
2019-03-03T11:13:05.173Z,2.10
2019-03-03T11:15:58.333Z,2.33
2019-03-03T11:18:58.559Z,2.20
2019-03-03T11:21:45.518Z,2.43
2019-03-03T11:24:44.335Z,2.97
2019-03-03T11:27:26.449Z,2.80
2019-03-03T11:30:09.264Z,2.43
2019-03-03T11:32:52.934Z,2.10
2019-03-03T11:35:58.152Z,1.67
2019-03-03T11:38:30.725Z,3.33
2019-03-03T11:41:08.261Z,2.27
2019-03-03T11:43:55.225Z,2.73
2019-03-03T11:46:30.438Z,2.60
2019-03-03T11:49:17.284Z,2.10
2019-03-03T11:51:55.230Z,2.20
2019-03-03T11:54:27.119Z,2.00
2019-03-03T11:57:09.211Z,2.27
2019-03-03T11:59:45.351Z,2.23
2019-03-03T12:02:53.585Z,3.20
2019-03-03T12:05:34.725Z,2.07
2019-03-03T12:08:20.327Z,2.67
2019-03-03T12:11:16.558Z,2.70
2019-03-03T12:14:18.406Z,2.10
2019-03-03T12:16:50.510Z,2.80
2019-03-03T12:19:28.055Z,2.23
2019-03-03T12:22:06.947Z,2.47
2019-03-03T12:24:51.107Z,2.33
2019-03-03T12:27:38.423Z,2.27
2019-03-03T12:30:35.565Z,2.53
2019-03-03T12:33:12.239Z,2.70
2019-03-03T12:35:48.259Z,2.07
2019-03-03T12:38:24.659Z,2.27
2019-03-03T12:41:11.570Z,2.27
2019-03-03T12:44:10.103Z,2.00
2019-03-03T12:47:01.008Z,2.43
2019-03-03T12:49:38.772Z,2.13
2019-03-03T12:52:20.038Z,1.87
2019-03-03T12:54:55.961Z,2.47
2019-03-03T12:57:35.175Z,1.93
2019-03-03T13:00:31.328Z,2.50
2019-03-03T13:03:13.172Z,1.97
2019-03-03T13:05:51.306Z,1.90
2019-03-03T13:08:32.754Z,2.17
2019-03-03T13:11:28.420Z,1.73
2019-03-03T13:14:13.950Z,1.70
2019-03-03T13:16:56.092Z,2.00
2019-03-03T13:19:38.041Z,2.07
2019-03-03T13:22:15.360Z,2.20
2019-03-03T13:24:53.224Z,1.80
2019-03-03T13:27:43.007Z,2.27
2019-03-03T13:30:32.024Z,2.50
2019-03-03T13:33:37.232Z,2.53
2019-03-03T13:36:23.386Z,2.50
2019-03-03T13:39:09.412Z,2.50
2019-03-03T13:42:05.644Z,2.33
2019-03-03T13:44:33.096Z,1.73
2019-03-03T13:47:00.536Z,2.60
2019-03-03T13:49:27.892Z,2.17
2019-03-03T13:51:55.253Z,2.17
2019-03-03T13:54:24.721Z,2.10
2019-03-03T13:56:52.138Z,2.00
2019-03-03T13:59:19.500Z,2.40
2019-03-03T14:01:46.924Z,2.70
2019-03-03T14:04:14.279Z,2.23
2019-03-03T14:06:41.836Z,2.23
2019-03-03T14:09:09.392Z,2.10
2019-03-03T14:11:36.747Z,2.07
2019-03-03T14:14:04.622Z,2.23
2019-03-03T14:16:32.090Z,2.30
2019-03-03T14:18:59.548Z,2.10
2019-03-03T14:21:27.077Z,1.50
2019-03-03T14:23:54.553Z,2.00
2019-03-03T14:26:22.078Z,2.07
2019-03-03T14:28:49.564Z,2.67
2019-03-03T14:31:17.039Z,2.17
2019-03-03T14:33:44.474Z,1.77
2019-03-03T14:36:11.959Z,1.80
2019-03-03T14:38:39.282Z,1.87
2019-03-03T14:41:06.668Z,2.43
2019-03-03T14:43:34.004Z,1.83
2019-03-03T14:46:01.440Z,2.07
2019-03-03T14:48:28.823Z,1.97
2019-03-03T14:50:56.294Z,1.97
2019-03-03T14:53:23.656Z,1.60
2019-03-03T14:55:51.103Z,1.60
2019-03-03T14:58:18.798Z,2.40
2019-03-03T15:00:46.376Z,2.10
2019-03-03T15:03:13.937Z,0.97
2019-03-03T15:05:41.419Z,1.27
2019-03-03T15:08:08.880Z,2.37
2019-03-03T15:10:36.289Z,2.10
2019-03-03T15:13:03.689Z,1.60
2019-03-03T15:15:31.861Z,2.43
2019-03-03T15:17:59.217Z,2.30
2019-03-03T15:20:26.767Z,1.37
2019-03-03T15:22:54.230Z,1.80
2019-03-03T15:25:21.627Z,1.40
2019-03-03T15:27:49.003Z,2.20
2019-03-03T15:30:17.728Z,1.83
2019-03-03T15:32:45.375Z,1.50
2019-03-03T15:35:12.955Z,1.83
2019-03-03T15:37:40.284Z,3.03
2019-03-03T15:40:08.945Z,3.57
2019-03-03T15:42:36.395Z,1.87
2019-03-03T15:45:04.273Z,2.37
2019-03-03T15:47:31.660Z,3.03
2019-03-03T15:49:59.005Z,1.93
2019-03-03T15:52:26.371Z,1.33
2019-03-03T15:54:53.815Z,2.27
2019-03-03T15:57:21.295Z,1.90
2019-03-03T15:59:48.769Z,2.30
2019-03-03T16:02:16.178Z,1.70
2019-03-03T16:04:43.640Z,2.47
2019-03-03T16:07:11.088Z,1.63
2019-03-03T16:09:38.564Z,1.87
2019-03-03T16:12:06.023Z,2.00
2019-03-03T16:14:33.370Z,1.73
2019-03-03T16:17:00.850Z,1.93
2019-03-03T16:19:28.353Z,2.03
2019-03-03T16:21:55.822Z,1.80
2019-03-03T16:24:23.242Z,1.63
2019-03-03T16:26:50.605Z,2.17
2019-03-03T16:29:17.950Z,1.47
2019-03-03T16:31:45.417Z,1.97
2019-03-03T16:34:12.916Z,1.47
2019-03-03T16:36:40.289Z,2.03
2019-03-03T16:39:07.846Z,2.00
2019-03-03T16:41:35.298Z,1.87
2019-03-03T16:44:02.648Z,1.90
2019-03-03T16:46:30.112Z,2.10
2019-03-03T16:48:57.587Z,2.23
2019-03-03T16:51:28.003Z,1.83
2019-03-03T16:53:55.437Z,1.80
2019-03-03T16:56:22.911Z,1.77
2019-03-03T16:58:50.344Z,1.70
2019-03-03T17:01:17.771Z,1.83
2019-03-03T17:03:45.205Z,2.33
2019-03-03T17:06:12.645Z,2.07
2019-03-03T17:08:40.107Z,2.17
2019-03-03T17:11:07.633Z,1.70
2019-03-03T17:13:35.049Z,1.73
2019-03-03T17:16:02.362Z,1.30
2019-03-03T17:18:29.835Z,3.03
2019-03-03T17:20:57.269Z,1.43
2019-03-03T17:23:24.701Z,1.97
2019-03-03T17:25:52.543Z,2.50
2019-03-03T17:28:20.166Z,1.80
2019-03-03T17:30:47.619Z,1.87
2019-03-03T17:33:34.814Z,2.13
2019-03-03T17:36:02.274Z,1.80
2019-03-03T17:38:29.955Z,1.80
2019-03-03T17:40:57.388Z,1.90
2019-03-03T17:43:24.886Z,1.90
2019-03-03T17:45:52.318Z,1.97
2019-03-03T17:48:19.925Z,1.50
2019-03-03T17:50:47.366Z,2.13
2019-03-03T17:53:14.706Z,1.40
2019-03-03T17:55:42.113Z,2.10
2019-03-03T17:58:10.768Z,2.23
2019-03-03T18:00:39.527Z,1.10
2019-03-03T18:03:06.953Z,1.27
2019-03-03T18:05:34.531Z,1.70
2019-03-03T18:08:01.926Z,1.40
2019-03-03T18:10:29.307Z,2.20
2019-03-03T18:12:56.812Z,1.40
2019-03-03T18:15:24.236Z,1.07
2019-03-03T18:17:51.697Z,1.53
2019-03-03T18:20:19.076Z,1.20
2019-03-03T18:22:46.399Z,1.20
2019-03-03T18:25:14.651Z,1.43
2019-03-03T18:27:42.226Z,1.50
2019-03-03T18:30:13.222Z,1.50
2019-03-03T18:32:40.672Z,1.63
2019-03-03T18:35:08.345Z,1.73
2019-03-03T18:37:35.775Z,1.27
2019-03-03T18:40:04.068Z,1.67
2019-03-03T18:42:31.530Z,1.43
2019-03-03T18:44:58.962Z,1.53
2019-03-03T18:47:26.428Z,1.13
2019-03-03T18:49:53.954Z,1.37
2019-03-03T18:52:21.516Z,0.93
2019-03-03T18:54:48.989Z,1.60
2019-03-03T18:57:17.609Z,1.37
2019-03-03T18:59:44.947Z,1.13
2019-03-03T19:02:13.605Z,1.60
2019-03-03T19:04:41.039Z,1.33
2019-03-03T19:07:08.405Z,1.37
2019-03-03T19:09:35.847Z,0.97
2019-03-03T19:12:03.438Z,1.00
2019-03-03T19:14:30.800Z,0.90
2019-03-03T19:16:58.269Z,1.40
2019-03-03T19:19:25.748Z,1.63
2019-03-03T19:21:53.188Z,1.50
2019-03-03T19:24:20.557Z,1.30
2019-03-03T19:26:47.939Z,1.10
2019-03-03T19:29:15.376Z,1.30
2019-03-03T19:31:42.909Z,1.10
2019-03-03T19:34:10.307Z,1.27
2019-03-03T19:36:37.738Z,0.90
2019-03-03T19:39:05.485Z,1.00
2019-03-03T19:41:33.329Z,1.73
2019-03-03T19:44:00.791Z,0.60
2019-03-03T19:46:28.229Z,1.10
2019-03-03T19:48:55.581Z,0.80
2019-03-03T19:51:23.186Z,1.53
2019-03-03T19:53:50.608Z,1.20
2019-03-03T19:56:18.170Z,1.43
2019-03-03T19:58:45.516Z,0.97
2019-03-03T20:01:12.955Z,1.30
2019-03-03T20:03:40.399Z,1.17
2019-03-03T20:06:10.338Z,1.60
2019-03-03T20:08:37.843Z,2.07
2019-03-03T20:11:05.417Z,1.10
2019-03-03T20:13:32.800Z,1.73
2019-03-03T20:16:00.217Z,1.77
2019-03-03T20:18:27.669Z,1.03
2019-03-03T20:20:55.019Z,1.70
2019-03-03T20:23:22.507Z,1.33
2019-03-03T20:25:49.983Z,1.30
2019-03-03T20:28:17.431Z,1.83
2019-03-03T20:30:45.405Z,1.40
2019-03-03T20:33:12.926Z,1.43
2019-03-03T20:35:40.360Z,2.33
2019-03-03T20:38:07.818Z,0.73
2019-03-03T20:40:35.318Z,0.93
2019-03-03T20:43:02.849Z,1.07
2019-03-03T20:45:31.437Z,0.97
2019-03-03T20:47:58.931Z,1.07
2019-03-03T20:50:28.699Z,1.00
2019-03-03T20:52:56.987Z,0.87
2019-03-03T20:55:24.513Z,0.70
2019-03-03T20:57:52.003Z,0.70
2019-03-03T21:00:21.215Z,0.80
2019-03-03T21:02:48.775Z,1.27
2019-03-03T21:05:16.340Z,0.97
2019-03-03T21:07:51.307Z,0.90
2019-03-03T21:10:17.374Z,1.17
2019-03-03T21:12:46.456Z,1.03
2019-03-03T21:15:13.828Z,1.13
2019-03-03T21:17:44.037Z,1.27
2019-03-03T21:20:13.169Z,1.50
2019-03-03T21:22:40.570Z,0.97
2019-03-03T21:25:28.342Z,1.30
2019-03-03T21:27:56.757Z,0.60
2019-03-03T21:30:25.781Z,0.77
2019-03-03T21:32:53.663Z,0.93
2019-03-03T21:35:21.736Z,0.83
2019-03-03T21:37:49.401Z,0.60
2019-03-03T21:40:17.435Z,0.67
2019-03-03T21:42:47.504Z,0.93
2019-03-03T21:45:16.359Z,1.20
2019-03-03T21:47:43.869Z,1.00
2019-03-03T21:50:13.341Z,0.93
2019-03-03T21:52:40.820Z,0.83
2019-03-03T21:55:08.277Z,0.87
2019-03-03T21:57:35.689Z,1.23
2019-03-03T22:00:08.406Z,0.93
2019-03-03T22:02:35.868Z,1.03
2019-03-03T22:05:03.334Z,0.60
2019-03-03T22:07:30.698Z,0.77
2019-03-03T22:09:58.184Z,1.00
2019-03-03T22:12:26.045Z,0.80
2019-03-03T22:14:53.497Z,1.23
2019-03-03T22:17:20.955Z,1.13
2019-03-03T22:19:48.406Z,0.80
2019-03-03T22:22:15.845Z,0.90
2019-03-03T22:24:43.192Z,0.87
2019-03-03T22:27:10.846Z,0.87
2019-03-03T22:29:38.310Z,1.20
2019-03-03T22:32:05.734Z,0.97
2019-03-03T22:34:33.173Z,1.43
2019-03-03T22:37:00.605Z,1.00
2019-03-03T22:39:27.913Z,0.97
2019-03-03T22:41:55.790Z,1.00
2019-03-03T22:44:23.361Z,0.90
2019-03-03T22:46:50.849Z,1.03
2019-03-03T22:49:18.189Z,0.80
2019-03-03T22:51:45.576Z,1.07
2019-03-03T22:54:13.055Z,0.60
2019-03-03T22:56:40.492Z,0.50
2019-03-03T22:59:07.827Z,0.90
2019-03-03T23:01:38.771Z,0.93
2019-03-03T23:04:50.080Z,0.83
2019-03-03T23:07:25.026Z,0.93
2019-03-03T23:10:49.491Z,0.87
2019-03-03T23:13:34.500Z,0.73
2019-03-03T23:16:20.795Z,0.77
2019-03-03T23:19:30.267Z,0.70
2019-03-03T23:22:28.895Z,0.80
2019-03-03T23:25:53.419Z,0.73
2019-03-03T23:28:31.227Z,0.60
2019-03-03T23:30:58.570Z,0.73
2019-03-03T23:33:26.039Z,1.10
2019-03-03T23:35:53.417Z,0.83
2019-03-03T23:38:20.762Z,0.70
2019-03-03T23:40:48.093Z,0.70
2019-03-03T23:43:15.538Z,0.60
2019-03-03T23:45:43.027Z,0.87
2019-03-03T23:48:10.467Z,0.70
2019-03-03T23:50:38.033Z,0.60
2019-03-03T23:53:05.369Z,0.67
2019-03-03T23:55:32.721Z,0.70
2019-03-03T23:58:00.073Z,0.90
